This is the latest recevied weather packets stored in our database for station/object K7TSD. If no packets are shown the sender has not sent any weather packets the latest 10 day(s).
| Time | Temp. | Humidity | Pressure | Rain* | Wind** | Luminosity | Snow |
|---|---|---|---|---|---|---|---|
| 1778160386 | 11.67° C | 57% | 1009.3 hPa | 0 mm | - | 66 W/m² | - |
| 1778160083 | 12.22° C | 56% | 1009.2 hPa | 0 mm | - | 56 W/m² | - |
| 1778159780 | 12.22° C | 56% | 1009.3 hPa | 0 mm | - | 61 W/m² | - |
| 1778159477 | 11.67° C | 58% | 1009.4 hPa | 0 mm | - | 57 W/m² | - |
| 1778159174 | 11.67° C | 58% | 1009.1 hPa | 0 mm | - | 44 W/m² | - |
| 1778158872 | 11.67° C | 57% | 1009.3 hPa | 0 mm | - | 40 W/m² | - |
| 1778158570 | 11.67° C | 56% | 1009.2 hPa | 0 mm | - | 40 W/m² | - |
| 1778158267 | 11.67° C | 57% | 1009.1 hPa | 0 mm | - | 47 W/m² | - |
| 1778157964 | 11.67° C | 55% | 1008.9 hPa | 0 mm | - | 45 W/m² | - |
| 1778157662 | 11.11° C | 55% | 1008.9 hPa | 0 mm | - | 39 W/m² | - |
| 1778157359 | 11.11° C | 56% | 1008.8 hPa | 0 mm | - | 32 W/m² | - |
| 1778157056 | 11.11° C | 56% | 1008.7 hPa | 0 mm | - | 28 W/m² | - |
| 1778156751 | 10.56° C | 57% | 1008.9 hPa | 0 mm | - | 25 W/m² | - |
| 1778156447 | 10.56° C | 58% | 1008.5 hPa | 0 mm | - | 27 W/m² | - |
| 1778156143 | 10.56° C | 58% | 1008.7 hPa | 0 mm | - | 22 W/m² | - |
| 1778155839 | 10° C | 59% | 1008.6 hPa | 0 mm | - | 16 W/m² | - |
| 1778155530 | 10.56° C | 57% | 1008.7 hPa | 0 mm | - | 11 W/m² | - |
| 1778155227 | 10° C | 59% | 1008.6 hPa | 0 mm | - | 7 W/m² | - |
| 1778154923 | 10.56° C | 58% | 1008.7 hPa | 0 mm | - | 4 W/m² | - |
| 1778154619 | 10° C | 58% | 1008.5 hPa | 0 mm | - | 1 W/m² | - |
| 1778154315 | 10° C | 59% | 1008.6 hPa | 0 mm | - | 0 W/m² | - |
| 1778154012 | 10.56° C | 59% | 1008.8 hPa | 0 mm | - | 0 W/m² | - |
| 1778153709 | 10.56° C | 58% | 1008.8 hPa | 0 mm | - | 0 W/m² | - |
| 1778153407 | 11.11° C | 55% | 1008.6 hPa | 0 mm | - | 0 W/m² | - |
| 1778153104 | 11.67° C | 53% | 1008.6 hPa | 0 mm | - | 0 W/m² | - |
* Rain latest hour (hover to see other rain measurements)
** Current wind speed in m/s (hover to see current wind gust speed)